Weather Station Data

Station Data Captured at Five Minute Intervals Since Midnight


Date Time Temp. RH % Dew Pt. Wind Speed Wind Dir. Peak Wind Wind Chill Pressure Precip. Solar W/m2 ET
5/25/18 12:10p 79.3 60 64.2 0.0 S 2.0 79.3 29.964 0.00 835 0.000
5/25/18 12:05p 79.1 56 62.1 0.0 SSW 5.0 79.1 29.965 0.00 834 0.000
5/25/18 12:00p 78.8 59 63.3 0.0 S 5.0 78.8 29.964 0.00 831 0.016
5/25/18 11:55a 78.8 57 62.3 0.0 S 3.0 78.8 29.966 0.00 822 0.000
5/25/18 11:50a 79.1 58 63.1 1.0 S 5.0 79.1 29.969 0.00 811 0.000
5/25/18 11:45a 79.8 58 63.7 0.0 SSE 2.0 79.8 29.967 0.00 802 0.000
5/25/18 11:40a 79.4 60 64.3 0.0 SSE 1.0 79.4 29.969 0.00 789 0.000
5/25/18 11:35a 78.9 56 61.9 1.0 SSW 4.0 78.9 29.970 0.00 778 0.000
5/25/18 11:30a 78.8 61 64.2 0.0 SSE 1.0 78.8 29.969 0.00 765 0.000
5/25/18 11:25a 78.1 59 62.6 0.0 --- 0.0 78.1 29.969 0.00 750 0.000
5/25/18 11:20a 77.6 61 63.1 0.0 SSE 4.0 77.6 29.970 0.00 738 0.000
5/25/18 11:15a 77.8 62 63.7 0.0 S 2.0 77.8 29.972 0.00 407 0.000
5/25/18 11:10a 77.6 59 62.1 0.0 NW 2.0 77.6 29.973 0.00 75 0.000
5/25/18 11:05a 76.8 62 62.8 0.0 --- 0.0 76.8 29.971 0.00 70 0.000
5/25/18 11:00a 76.4 58 60.5 0.0 S 3.0 76.4 29.972 0.00 93 0.003
5/25/18 10:55a 76.5 62 62.5 0.0 SSE 1.0 76.5 29.972 0.00 102 0.000
5/25/18 10:50a 76.6 63 63.1 0.0 S 1.0 76.6 29.973 0.00 60 0.000
5/25/18 10:45a 76.5 64 63.4 0.0 --- 2.0 76.5 29.973 0.00 67 0.000
5/25/18 10:40a 76.3 60 61.4 0.0 S 2.0 76.3 29.975 0.00 78 0.000
5/25/18 10:35a 76.2 63 62.7 0.0 --- 0.0 76.2 29.974 0.00 65 0.000
5/25/18 10:30a 76.2 60 61.3 0.0 S 1.0 76.2 29.974 0.00 112 0.000
5/25/18 10:25a 76.2 63 62.7 0.0 --- 0.0 76.2 29.973 0.00 90 0.000
5/25/18 10:20a 76.0 63 62.5 0.0 --- 0.0 76.0 29.974 0.00 174 0.000
5/25/18 10:15a 76.0 63 62.5 0.0 --- 0.0 76.0 29.976 0.00 89 0.000
5/25/18 10:10a 76.0 61 61.6 0.0 --- 0.0 76.0 29.975 0.00 51 0.000
5/25/18 10:05a 75.8 62 61.8 0.0 --- 0.0 75.8 29.975 0.00 107 0.000
5/25/18 10:00a 75.3 66 63.2 0.0 --- 0.0 75.3 29.977 0.00 145 0.005
5/25/18 9:55a 74.9 66 62.8 0.0 --- 0.0 74.9 29.979 0.00 402 0.000
5/25/18 9:50a 74.7 67 63.0 0.0 --- 0.0 74.7 29.977 0.00 420 0.000
5/25/18 9:45a 74.5 67 62.8 0.0 --- 0.0 74.5 29.981 0.00 101 0.000
5/25/18 9:40a 74.4 66 62.3 0.0 --- 0.0 74.4 29.983 0.00 148 0.000
5/25/18 9:35a 74.4 66 62.3 0.0 --- 0.0 74.4 29.982 0.00 58 0.000
5/25/18 9:30a 74.4 66 62.3 0.0 --- 0.0 74.4 29.983 0.00 74 0.000
5/25/18 9:25a 74.3 66 62.2 0.0 --- 0.0 74.3 29.984 0.00 64 0.000
5/25/18 9:20a 74.0 67 62.3 0.0 --- 0.0 74.0 29.983 0.00 61 0.000
5/25/18 9:15a 73.4 67 61.8 0.0 --- 0.0 73.4 29.985 0.00 390 0.000
5/25/18 9:10a 72.4 69 61.7 0.0 --- 0.0 72.4 29.985 0.00 398 0.000
5/25/18 9:05a 71.5 72 62.0 0.0 --- 0.0 71.5 29.985 0.00 382 0.000
5/25/18 9:00a 70.5 73 61.4 0.0 --- 0.0 70.5 29.984 0.00 313 0.003
5/25/18 8:55a 69.4 75 61.1 0.0 --- 0.0 69.4 29.985 0.00 344 0.000
5/25/18 8:50a 68.6 75 60.4 0.0 --- 0.0 68.6 29.984 0.00 328 0.000
5/25/18 8:45a 68.0 77 60.5 0.0 --- 0.0 68.0 29.984 0.00 78 0.000
5/25/18 8:40a 66.9 81 60.9 0.0 --- 0.0 66.9 29.986 0.00 52 0.000
5/25/18 8:35a 66.1 82 60.4 0.0 --- 0.0 66.1 29.990 0.00 44 0.000
5/25/18 8:30a 65.3 83 60.0 0.0 --- 0.0 65.3 29.991 0.00 39 0.000
5/25/18 8:25a 64.7 84 59.8 0.0 --- 0.0 64.7 29.990 0.00 38 0.000
5/25/18 8:20a 64.2 84 59.3 0.0 --- 0.0 64.2 29.989 0.00 39 0.000
5/25/18 8:15a 63.8 85 59.2 0.0 --- 0.0 63.8 29.992 0.00 32 0.000
5/25/18 8:10a 63.2 86 58.9 0.0 --- 0.0 63.2 29.993 0.00 42 0.000
5/25/18 8:05a 62.6 86 58.4 0.0 --- 0.0 62.6 29.996 0.00 43 0.000
5/25/18 8:00a 62.0 87 58.1 0.0 --- 0.0 62.0 29.997 0.00 53 0.001
5/25/18 7:55a 61.6 87 57.7 0.0 --- 0.0 61.6 29.998 0.00 37 0.000
5/25/18 7:50a 61.1 87 57.2 0.0 --- 0.0 61.1 29.999 0.00 30 0.000
5/25/18 7:45a 60.7 87 56.8 0.0 --- 0.0 60.7 29.999 0.00 46 0.000
5/25/18 7:40a 60.3 87 56.4 0.0 --- 0.0 60.3 30.001 0.00 40 0.000
5/25/18 7:35a 59.9 87 56.0 0.0 --- 0.0 59.9 30.000 0.00 25 0.000
5/25/18 7:30a 59.6 87 55.7 0.0 --- 0.0 59.6 30.002 0.00 29 0.000
5/25/18 7:25a 59.3 87 55.4 0.0 --- 0.0 59.3 30.002 0.00 24 0.000
5/25/18 7:20a 59.1 87 55.2 0.0 --- 0.0 59.1 30.003 0.00 22 0.000
5/25/18 7:15a 59.0 87 55.1 0.0 --- 0.0 59.0 30.003 0.00 20 0.000
5/25/18 7:10a 58.9 87 55.0 0.0 --- 0.0 58.9 30.001 0.00 19 0.000
5/25/18 7:05a 58.7 87 54.8 0.0 --- 0.0 58.7 30.001 0.00 19 0.000
5/25/18 7:00a 58.5 88 55.0 0.0 --- 0.0 58.5 30.002 0.00 15 0.000
5/25/18 6:55a 58.4 87 54.5 0.0 --- 0.0 58.4 30.001 0.00 12 0.000
5/25/18 6:50a 58.4 87 54.5 0.0 --- 0.0 58.4 30.002 0.00 11 0.000
5/25/18 6:45a 58.4 87 54.5 0.0 --- 0.0 58.4 30.001 0.00 10 0.000
5/25/18 6:40a 58.5 87 54.6 0.0 --- 0.0 58.5 30.001 0.00 7 0.000
5/25/18 6:35a 58.6 87 54.7 0.0 --- 0.0 58.6 30.001 0.00 4 0.000
5/25/18 6:30a 58.6 87 54.7 0.0 --- 0.0 58.6 29.999 0.00 0 0.000
5/25/18 6:25a 58.5 87 54.6 0.0 --- 0.0 58.5 29.996 0.00 0 0.000
5/25/18 6:20a 58.5 87 54.6 0.0 --- 0.0 58.5 29.996 0.00 0 0.000
5/25/18 6:15a 58.6 87 54.7 0.0 --- 0.0 58.6 29.998 0.00 0 0.000
5/25/18 6:10a 58.6 88 55.1 0.0 --- 0.0 58.6 29.995 0.00 0 0.000
5/25/18 6:05a 58.6 88 55.1 0.0 --- 0.0 58.6 29.995 0.00 0 0.000
5/25/18 6:00a 58.5 88 55.0 0.0 --- 0.0 58.5 29.996 0.00 0 0.000
5/25/18 5:55a 58.5 87 54.6 0.0 --- 0.0 58.5 29.995 0.00 0 0.000
5/25/18 5:50a 58.5 87 54.6 0.0 --- 0.0 58.5 29.996 0.00 0 0.000
5/25/18 5:45a 58.5 87 54.6 0.0 --- 0.0 58.5 29.996 0.00 0 0.000
5/25/18 5:40a 58.5 87 54.6 0.0 --- 0.0 58.5 29.997 0.00 0 0.000
5/25/18 5:35a 58.5 87 54.6 0.0 --- 0.0 58.5 30.002 0.00 0 0.000
5/25/18 5:30a 58.4 87 54.5 0.0 --- 0.0 58.4 30.002 0.00 0 0.000
5/25/18 5:25a 58.4 87 54.5 0.0 --- 0.0 58.4 30.000 0.00 0 0.000
5/25/18 5:20a 58.5 87 54.6 0.0 --- 0.0 58.5 30.004 0.00 0 0.000
5/25/18 5:15a 58.5 87 54.6 0.0 --- 0.0 58.5 30.007 0.00 0 0.000
5/25/18 5:10a 58.6 87 54.7 0.0 --- 0.0 58.6 30.005 0.00 0 0.000
5/25/18 5:05a 58.6 86 54.4 0.0 --- 0.0 58.6 30.005 0.00 0 0.000
5/25/18 5:00a 58.7 86 54.5 0.0 --- 0.0 58.7 30.002 0.00 0 0.000
5/25/18 4:55a 58.8 86 54.6 0.0 --- 0.0 58.8 30.002 0.00 0 0.000
5/25/18 4:50a 58.8 86 54.6 0.0 --- 0.0 58.8 30.002 0.00 0 0.000
5/25/18 4:45a 58.8 86 54.6 0.0 --- 0.0 58.8 30.002 0.00 0 0.000
5/25/18 4:40a 58.9 86 54.7 0.0 --- 0.0 58.9 30.001 0.00 0 0.000
5/25/18 4:35a 58.9 86 54.7 0.0 --- 0.0 58.9 30.003 0.00 0 0.000
5/25/18 4:30a 59.0 86 54.8 0.0 --- 0.0 59.0 30.004 0.00 0 0.000
5/25/18 4:25a 59.2 87 55.3 0.0 --- 0.0 59.2 30.006 0.00 0 0.000
5/25/18 4:20a 59.1 86 54.9 0.0 --- 0.0 59.1 30.007 0.00 0 0.000
5/25/18 4:15a 59.1 86 54.9 0.0 --- 0.0 59.1 30.008 0.00 0 0.000
5/25/18 4:10a 59.2 86 55.0 0.0 --- 0.0 59.2 30.009 0.00 0 0.000
5/25/18 4:05a 59.3 86 55.1 0.0 --- 0.0 59.3 30.009 0.00 0 0.000
5/25/18 4:00a 59.4 86 55.2 0.0 --- 0.0 59.4 30.009 0.00 0 0.000
5/25/18 3:55a 59.5 86 55.3 0.0 --- 0.0 59.5 30.008 0.00 0 0.000
5/25/18 3:50a 59.6 86 55.4 0.0 --- 0.0 59.6 30.009 0.00 0 0.000
5/25/18 3:45a 59.7 86 55.5 0.0 --- 0.0 59.7 30.007 0.00 0 0.000
5/25/18 3:40a 59.7 86 55.5 0.0 --- 0.0 59.7 30.011 0.00 0 0.000
5/25/18 3:35a 59.7 86 55.5 0.0 --- 0.0 59.7 30.010 0.00 0 0.000
5/25/18 3:30a 59.6 86 55.4 0.0 --- 0.0 59.6 30.012 0.00 0 0.000
5/25/18 3:25a 59.6 86 55.4 0.0 --- 0.0 59.6 30.012 0.00 0 0.000
5/25/18 3:20a 59.8 86 55.6 0.0 --- 0.0 59.8 30.013 0.00 0 0.000
5/25/18 3:15a 59.8 86 55.6 0.0 --- 0.0 59.8 30.015 0.00 0 0.000
5/25/18 3:10a 59.8 86 55.6 0.0 --- 0.0 59.8 30.015 0.00 0 0.000
5/25/18 3:05a 59.9 85 55.4 0.0 --- 0.0 59.9 30.015 0.00 0 0.000
5/25/18 3:00a 60.0 85 55.5 0.0 --- 0.0 60.0 30.014 0.00 0 0.000
5/25/18 2:55a 60.2 85 55.7 0.0 --- 0.0 60.2 30.015 0.00 0 0.000
5/25/18 2:50a 60.2 85 55.7 0.0 --- 0.0 60.2 30.016 0.00 0 0.000
5/25/18 2:45a 60.3 85 55.8 0.0 --- 0.0 60.3 30.017 0.00 0 0.000
5/25/18 2:40a 60.4 85 55.9 0.0 --- 0.0 60.4 30.019 0.00 0 0.000
5/25/18 2:35a 60.5 85 56.0 0.0 --- 0.0 60.5 30.019 0.00 0 0.000
5/25/18 2:30a 60.6 84 55.7 0.0 --- 0.0 60.6 30.021 0.00 0 0.000
5/25/18 2:25a 60.8 85 56.3 0.0 --- 0.0 60.8 30.022 0.00 0 0.000
5/25/18 2:20a 61.0 85 56.5 0.0 --- 0.0 61.0 30.023 0.00 0 0.000
5/25/18 2:15a 61.2 85 56.7 0.0 --- 0.0 61.2 30.024 0.00 0 0.000
5/25/18 2:10a 61.3 85 56.8 0.0 --- 0.0 61.3 30.028 0.00 0 0.000
5/25/18 2:05a 61.4 85 56.8 0.0 --- 0.0 61.4 30.029 0.00 0 0.000
5/25/18 2:00a 61.5 85 56.9 0.0 --- 0.0 61.5 30.034 0.00 0 0.001
5/25/18 1:55a 61.6 84 56.7 0.0 --- 0.0 61.6 30.035 0.00 0 0.000
5/25/18 1:50a 61.7 84 56.8 0.0 --- 0.0 61.7 30.037 0.00 0 0.000
5/25/18 1:45a 61.8 83 56.6 0.0 --- 0.0 61.8 30.036 0.00 0 0.000
5/25/18 1:40a 62.0 83 56.8 0.0 --- 0.0 62.0 30.037 0.00 0 0.000
5/25/18 1:35a 62.0 83 56.8 0.0 --- 0.0 62.0 30.039 0.00 0 0.000
5/25/18 1:30a 62.0 82 56.4 0.0 --- 0.0 62.0 30.041 0.00 0 0.000
5/25/18 1:25a 62.1 82 56.5 0.0 --- 0.0 62.1 30.041 0.00 0 0.000
5/25/18 1:20a 62.1 82 56.5 0.0 --- 0.0 62.1 30.041 0.00 0 0.000
5/25/18 1:15a 62.2 82 56.6 0.0 --- 0.0 62.2 30.041 0.00 0 0.000
5/25/18 1:10a 62.3 83 57.1 0.0 --- 0.0 62.3 30.043 0.00 0 0.000
5/25/18 1:05a 62.4 84 57.5 0.0 --- 0.0 62.4 30.042 0.00 0 0.000
5/25/18 1:00a 62.5 84 57.6 0.0 --- 0.0 62.5 30.042 0.00 0 0.001
5/25/18 12:55a 62.6 84 57.7 0.0 --- 0.0 62.6 30.044 0.00 0 0.000
5/25/18 12:50a 62.7 84 57.8 0.0 --- 0.0 62.7 30.045 0.00 0 0.000
5/25/18 12:45a 62.8 84 57.9 0.0 --- 0.0 62.8 30.044 0.00 0 0.000
5/25/18 12:40a 62.9 84 58.0 0.0 --- 0.0 62.9 30.042 0.00 0 0.000
5/25/18 12:35a 63.1 84 58.2 0.0 --- 0.0 63.1 30.040 0.00 0 0.000
5/25/18 12:30a 63.2 83 57.9 0.0 --- 0.0 63.2 30.043 0.00 0 0.000
5/25/18 12:25a 63.4 83 58.1 0.0 --- 0.0 63.4 30.044 0.00 0 0.000
5/25/18 12:20a 63.6 83 58.3 0.0 --- 0.0 63.6 30.041 0.00 0 0.000
5/25/18 12:15a 63.7 83 58.4 0.0 --- 0.0 63.7 30.042 0.00 0 0.000
5/25/18 12:10a 63.8 82 58.2 0.0 --- 0.0 63.8 30.040 0.00 0 0.000
5/25/18 12:05a 63.9 82 58.3 0.0 --- 0.0 63.9 30.040 0.00 0 0.000
5/25/18 12:00a 64.0 82 58.4 0.0 --- 0.0 64.0 30.041 0.00 0 0.001

11,976 Page Views